Time;durP1;ratioP1;P1;durP2;ratioP2;P2;SDS_P1;SDS_P2;PMS_P1;PMS_P2;Temp;Humidity;BMP_temperature;BMP_pressure;BME280_temperature;BME280_humidity;BME280_pressure;Samples;Min_cycle;Max_cycle;Signal;HPM_P1;HPM_P2
2023/07/11 00:00:00;;;;;;;52.10;25.70;;;19.70;99.90;;;;;;4996818;28;21191;-72
2023/07/11 00:02:28;;;;;;;48.03;22.43;;;19.70;99.90;;;;;;5004718;28;20493;-72
2023/07/11 00:04:55;;;;;;;37.57;18.70;;;19.60;99.90;;;;;;4996683;28;20470;-72
2023/07/11 00:07:21;;;;;;;37.87;18.50;;;19.70;99.90;;;;;;4995131;28;20505;-72
2023/07/11 00:09:49;;;;;;;34.10;17.80;;;19.60;99.90;;;;;;4991634;28;20450;-72
2023/07/11 00:12:16;;;;;;;40.00;17.13;;;19.60;99.90;;;;;;4991345;28;20459;-72
2023/07/11 00:14:42;;;;;;;30.40;16.40;;;19.50;99.90;;;;;;4999997;28;20989;-71
2023/07/11 00:17:09;;;;;;;27.43;16.23;;;19.50;99.90;;;;;;5011146;28;20536;-72
2023/07/11 00:19:49;;;;;;;32.90;12.03;;;19.40;99.90;;;;;;5010047;28;20490;-72
2023/07/11 00:22:16;;;;;;;22.60;10.10;;;19.40;99.90;;;;;;4993961;28;20451;-72
2023/07/11 00:24:43;;;;;;;10.70;6.40;;;19.40;99.90;;;;;;4996333;28;20482;-72
2023/07/11 00:27:11;;;;;;;8.63;5.03;;;19.40;99.90;;;;;;4996119;28;20455;-72
2023/07/11 00:29:38;;;;;;;6.80;4.50;;;19.40;99.90;;;;;;5004171;28;20533;-72
2023/07/11 00:32:06;;;;;;;11.93;4.60;;;19.30;99.90;;;;;;4997734;28;20442;-72
2023/07/11 00:34:32;;;;;;;8.30;4.33;;;19.30;99.90;;;;;;4996012;28;20991;-72
2023/07/11 00:37:01;;;;;;;9.70;4.47;;;19.30;99.90;;;;;;5009615;28;20450;-72
2023/07/11 00:39:29;;;;;;;6.63;3.60;;;19.30;99.90;;;;;;5009834;28;20501;-72
2023/07/11 00:41:56;;;;;;;10.63;4.13;;;19.30;99.90;;;;;;5010690;28;20458;-72
2023/07/11 00:44:23;;;;;;;4.87;3.47;;;19.30;99.90;;;;;;4991148;28;20483;-72
2023/07/11 00:46:51;;;;;;;10.97;3.90;;;19.30;99.90;;;;;;4991120;28;20458;-72
2023/07/11 00:49:20;;;;;;;10.77;6.37;;;19.20;99.90;;;;;;4991068;28;20463;-72
2023/07/11 00:51:50;;;;;;;28.47;15.40;;;19.20;99.90;;;;;;4999922;28;20521;-72
2023/07/11 00:54:21;;;;;;;28.73;16.60;;;19.20;99.90;;;;;;5001089;28;21023;-72
2023/07/11 00:56:49;;;;;;;51.93;25.80;;;19.10;99.90;;;;;;4996049;28;20455;-72
2023/07/11 00:59:18;;;;;;;57.27;24.80;;;19.00;99.90;;;;;;4991135;28;20450;-72
2023/07/11 01:01:50;;;;;;;42.27;23.20;;;18.80;99.90;;;;;;4993527;28;21003;-72
2023/07/11 01:04:19;;;;;;;46.87;23.30;;;18.60;99.90;;;;;;5003599;28;20478;-72
2023/07/11 01:06:46;;;;;;;45.70;23.13;;;18.50;99.90;;;;;;5010116;28;20462;-72
2023/07/11 01:09:13;;;;;;;27.40;15.70;;;18.40;99.90;;;;;;4993450;28;21006;-73
2023/07/11 01:11:54;;;;;;;33.60;16.10;;;18.40;99.90;;;;;;4994453;28;20455;-71
2023/07/11 01:14:21;;;;;;;22.53;13.80;;;18.40;99.90;;;;;;4994758;28;20466;-72
2023/07/11 01:16:48;;;;;;;37.30;17.47;;;18.50;99.90;;;;;;5000221;28;20466;-72
2023/07/11 01:19:15;;;;;;;36.03;17.60;;;18.50;99.90;;;;;;5003124;28;20450;-72
2023/07/11 01:21:43;;;;;;;37.97;17.30;;;18.50;99.90;;;;;;5009402;28;20520;-72
2023/07/11 01:24:09;;;;;;;29.20;16.80;;;18.50;99.90;;;;;;5013965;28;20892;-72
2023/07/11 01:26:36;;;;;;;41.30;17.87;;;18.50;99.90;;;;;;5007452;28;20514;-72
2023/07/11 01:29:04;;;;;;;37.37;15.90;;;18.50;99.90;;;;;;5011948;28;20466;-72
2023/07/11 01:31:33;;;;;;;32.33;16.40;;;18.50;99.90;;;;;;5010948;28;20461;-72
2023/07/11 01:34:00;;;;;;;33.23;16.17;;;18.50;99.90;;;;;;5013785;28;20474;-73
2023/07/11 01:36:27;;;;;;;44.53;22.60;;;18.50;99.90;;;;;;5013816;28;20532;-72
2023/07/11 01:38:55;;;;;;;62.77;28.63;;;18.50;99.90;;;;;;5013603;28;20450;-72
2023/07/11 01:41:21;;;;;;;56.70;28.00;;;18.40;99.90;;;;;;5013813;28;20494;-72
2023/07/11 01:43:48;;;;;;;66.57;31.00;;;18.40;99.90;;;;;;5013650;28;20541;-72
2023/07/11 01:46:15;;;;;;;62.30;29.97;;;18.40;99.90;;;;;;5006378;28;20864;-72
2023/07/11 01:48:41;;;;;;;49.00;25.30;;;18.40;99.90;;;;;;5013179;28;21004;-72
2023/07/11 01:51:08;;;;;;;39.33;17.93;;;18.40;99.90;;;;;;5007684;28;20454;-72
2023/07/11 01:53:34;;;;;;;26.53;13.90;;;18.40;99.90;;;;;;5012708;28;20476;-72
2023/07/11 01:56:04;;;;;;;16.53;9.43;;;18.30;99.90;;;;;;5012741;28;20510;-72
2023/07/11 01:58:32;;;;;;;16.00;9.10;;;18.30;99.90;;;;;;5013048;28;20488;-72
2023/07/11 02:00:59;;;;;;;15.73;7.80;;;18.20;99.90;;;;;;5013109;28;20486;-71
2023/07/11 02:03:26;;;;;;;11.20;6.30;;;18.20;99.90;;;;;;5013206;28;20458;-72
2023/07/11 02:05:53;;;;;;;16.70;7.47;;;18.10;99.90;;;;;;5009815;28;20517;-72
2023/07/11 02:08:19;;;;;;;16.90;9.43;;;18.10;99.90;;;;;;5010458;28;20978;-72
2023/07/11 02:10:46;;;;;;;13.93;9.73;;;18.00;99.90;;;;;;5013288;28;20450;-72
2023/07/11 02:13:14;;;;;;;15.77;10.03;;;18.00;99.90;;;;;;5013114;28;20497;-71
2023/07/11 02:15:41;;;;;;;18.73;10.60;;;17.90;99.90;;;;;;5006684;28;20545;-72
2023/07/11 02:18:08;;;;;;;16.10;10.10;;;17.90;99.90;;;;;;5011829;28;20958;-72
2023/07/11 02:20:39;;;;;;;22.13;11.70;;;17.90;99.90;;;;;;5011473;28;20490;-72
2023/07/11 02:23:06;;;;;;;20.40;11.53;;;17.90;99.90;;;;;;5011802;28;20509;-72
2023/07/11 02:25:33;;;;;;;21.53;10.90;;;17.80;99.90;;;;;;5005302;28;20478;-72
2023/07/11 02:27:59;;;;;;;24.20;11.50;;;17.80;99.90;;;;;;5012469;28;20459;-72
2023/07/11 02:30:27;;;;;;;23.10;11.97;;;17.80;99.90;;;;;;5012790;28;20450;-72
2023/07/11 02:32:54;;;;;;;19.37;11.60;;;17.80;99.90;;;;;;5009925;28;20520;-72
2023/07/11 02:35:21;;;;;;;19.27;11.33;;;17.80;99.90;;;;;;5011645;28;20530;-72
2023/07/11 02:37:47;;;;;;;18.57;11.23;;;17.80;99.90;;;;;;5012480;28;20524;-71
2023/07/11 02:40:14;;;;;;;20.40;9.60;;;17.80;99.90;;;;;;5012624;28;20544;-72
2023/07/11 02:42:41;;;;;;;13.80;8.20;;;17.70;99.90;;;;;;5012399;28;20518;-72
2023/07/11 02:45:08;;;;;;;9.13;6.93;;;17.70;99.90;;;;;;5012594;28;20524;-72
2023/07/11 02:47:36;;;;;;;9.60;7.40;;;17.60;99.90;;;;;;5012066;28;20878;-72
2023/07/11 02:50:03;;;;;;;21.10;8.23;;;17.60;99.90;;;;;;5004375;28;20458;-72
2023/07/11 02:52:29;;;;;;;14.43;7.43;;;17.60;99.90;;;;;;5012697;28;20520;-71
2023/07/11 02:54:56;;;;;;;13.57;8.57;;;17.50;99.90;;;;;;5012088;28;20482;-71
2023/07/11 02:57:23;;;;;;;15.10;8.93;;;17.50;99.90;;;;;;5011849;28;20500;-71
2023/07/11 02:59:49;;;;;;;16.97;10.13;;;17.50;99.90;;;;;;5012217;28;20455;-71
2023/07/11 03:02:16;;;;;;;23.30;11.37;;;17.50;99.90;;;;;;5008534;28;20498;-71
2023/07/11 03:04:44;;;;;;;20.23;11.17;;;17.50;99.90;;;;;;5012283;28;20474;-71
2023/07/11 03:07:10;;;;;;;19.27;11.70;;;17.50;99.90;;;;;;5011949;28;20939;-72
2023/07/11 03:09:38;;;;;;;20.00;11.60;;;17.50;99.90;;;;;;5012025;28;20512;-72
2023/07/11 03:12:06;;;;;;;19.90;11.67;;;17.50;99.90;;;;;;5011770;28;20959;-72
2023/07/11 03:14:33;;;;;;;18.80;11.20;;;17.50;99.90;;;;;;5012024;28;20560;-72
2023/07/11 03:16:59;;;;;;;19.87;12.23;;;17.50;99.90;;;;;;5011131;28;20516;-72
2023/07/11 03:19:26;;;;;;;18.50;11.70;;;17.50;99.90;;;;;;5011833;28;20516;-72
2023/07/11 03:21:54;;;;;;;19.63;11.00;;;17.50;99.90;;;;;;5011765;28;20560;-72
2023/07/11 03:24:20;;;;;;;16.13;9.77;;;17.50;99.90;;;;;;5003986;28;20449;-72
2023/07/11 03:26:47;;;;;;;16.87;9.90;;;17.50;99.90;;;;;;5003756;28;20943;-72
2023/07/11 03:29:15;;;;;;;16.67;9.30;;;17.40;99.90;;;;;;5010815;28;20454;-73
2023/07/11 03:31:42;;;;;;;14.10;9.13;;;17.40;99.90;;;;;;5007370;28;20450;-72
2023/07/11 03:34:09;;;;;;;20.90;9.13;;;17.40;99.90;;;;;;5011401;28;20448;-72
2023/07/11 03:36:35;;;;;;;13.43;8.70;;;17.40;99.90;;;;;;5011880;28;20516;-71
2023/07/11 03:39:04;;;;;;;17.90;10.03;;;17.40;99.90;;;;;;5011300;28;20943;-72
2023/07/11 03:41:31;;;;;;;18.90;7.70;;;17.40;99.90;;;;;;5006993;28;20833;-72
2023/07/11 03:43:57;;;;;;;11.33;7.10;;;17.40;99.90;;;;;;5011577;28;20470;-72
2023/07/11 03:46:24;;;;;;;14.07;7.60;;;17.40;99.90;;;;;;5005681;28;20500;-72
2023/07/11 03:48:50;;;;;;;12.53;7.57;;;17.40;99.90;;;;;;5011091;28;20428;-72
2023/07/11 03:51:17;;;;;;;18.57;6.90;;;17.50;99.90;;;;;;5011586;28;20425;-72
2023/07/11 03:53:44;;;;;;;12.80;7.00;;;17.50;99.90;;;;;;5005886;28;20456;-72
2023/07/11 03:56:12;;;;;;;11.83;7.30;;;17.50;99.90;;;;;;5011542;28;20458;-72
2023/07/11 03:58:39;;;;;;;12.30;6.80;;;17.50;99.90;;;;;;5010078;28;20454;-72
2023/07/11 04:01:05;;;;;;;16.87;8.80;;;17.50;99.90;;;;;;5009798;28;20486;-72
2023/07/11 04:03:32;;;;;;;14.30;9.47;;;17.50;99.90;;;;;;5005711;28;20942;-72
2023/07/11 04:05:58;;;;;;;13.03;8.37;;;17.60;99.90;;;;;;5011294;28;20449;-72
2023/07/11 04:08:25;;;;;;;11.80;7.57;;;17.50;99.90;;;;;;5006911;28;20458;-72
2023/07/11 04:10:52;;;;;;;12.50;7.73;;;17.50;99.90;;;;;;5001578;28;20494;-71
2023/07/11 04:13:20;;;;;;;12.43;8.30;;;17.50;99.90;;;;;;5010552;28;21017;-72
2023/07/11 04:15:46;;;;;;;10.77;6.77;;;17.40;99.90;;;;;;5008754;28;20453;-72
2023/07/11 04:18:13;;;;;;;11.10;6.53;;;17.40;99.90;;;;;;5004350;28;20451;-71
2023/07/11 04:20:39;;;;;;;9.77;6.93;;;17.40;99.90;;;;;;5011003;28;20454;-72
2023/07/11 04:23:06;;;;;;;15.47;7.10;;;17.40;99.90;;;;;;5011235;28;20458;-71
2023/07/11 04:25:33;;;;;;;12.47;6.03;;;17.50;99.90;;;;;;5010970;28;20474;-74
2023/07/11 04:27:59;;;;;;;12.50;6.60;;;17.50;99.90;;;;;;5010015;28;20837;-74
2023/07/11 04:30:27;;;;;;;7.63;6.10;;;17.70;99.90;;;;;;5010970;28;20458;-74
2023/07/11 04:32:54;;;;;;;8.67;6.07;;;17.90;99.90;;;;;;4998945;28;20997;-75
2023/07/11 04:35:20;;;;;;;9.37;6.50;;;18.20;99.90;;;;;;5010561;28;20470;-75
2023/07/11 04:37:47;;;;;;;8.17;5.53;;;18.50;99.90;;;;;;5009222;28;20454;-74
2023/07/11 04:40:14;;;;;;;11.63;6.13;;;18.60;99.90;;;;;;5009499;28;20450;-75
2023/07/11 04:42:40;;;;;;;11.83;7.00;;;18.80;99.90;;;;;;5011339;28;20527;-74
2023/07/11 04:45:08;;;;;;;8.57;5.67;;;19.00;99.90;;;;;;5013947;28;20525;-74
2023/07/11 04:47:37;;;;;;;12.13;6.70;;;19.10;99.90;;;;;;5013776;28;20458;-75
2023/07/11 04:50:04;;;;;;;12.60;6.90;;;19.30;99.90;;;;;;5014642;28;20442;-74
2023/07/11 04:52:31;;;;;;;6.63;5.23;;;19.40;99.90;;;;;;5014672;28;20450;-74
2023/07/11 04:54:58;;;;;;;8.67;5.97;;;19.40;99.90;;;;;;5013525;28;20574;-75
2023/07/11 04:57:25;;;;;;;8.93;5.90;;;19.60;99.90;;;;;;5011676;28;20454;-75
2023/07/11 04:59:51;;;;;;;10.80;5.97;;;19.70;99.90;;;;;;5009433;28;20541;-75
2023/07/11 05:02:19;;;;;;;8.90;5.87;;;19.80;99.90;;;;;;5012630;28;20493;-74
2023/07/11 05:04:47;;;;;;;9.53;6.00;;;19.90;99.90;;;;;;5009139;28;20541;-75
2023/07/11 05:07:15;;;;;;;7.57;5.60;;;19.90;99.90;;;;;;5006216;28;20526;-75
2023/07/11 05:09:41;;;;;;;10.80;6.23;;;20.00;99.90;;;;;;5014035;28;20852;-75
2023/07/11 05:12:10;;;;;;;12.07;6.00;;;19.90;99.90;;;;;;5012932;28;20485;-75
2023/07/11 05:14:37;;;;;;;10.10;4.80;;;19.90;99.90;;;;;;5005065;28;21039;-75
2023/07/11 05:17:04;;;;;;;18.30;5.80;;;19.90;99.90;;;;;;5008961;28;20883;-75
2023/07/11 05:19:30;;;;;;;9.00;5.57;;;19.90;99.90;;;;;;5011914;28;20446;-75
2023/07/11 05:21:58;;;;;;;12.33;6.80;;;19.90;99.90;;;;;;5012283;28;20893;-75
2023/07/11 05:24:25;;;;;;;11.67;6.63;;;20.10;99.90;;;;;;5013364;28;20788;-74
2023/07/11 05:26:52;;;;;;;23.03;6.60;;;20.20;99.90;;;;;;5013306;28;20458;-74
2023/07/11 05:30:56;;;;;;;15.23;6.30;;;20.30;99.90;;;;;;5088288;27;20572;-71
2023/07/11 05:33:24;;;;;;;15.23;5.80;;;20.40;99.90;;;;;;5069103;28;20462;-72
2023/07/11 05:35:59;;;;;;;11.43;5.33;;;20.40;99.90;;;;;;5048296;28;20929;-71
2023/07/11 05:38:26;;;;;;;13.43;5.73;;;20.40;99.90;;;;;;5047904;28;20456;-71
2023/07/11 05:40:52;;;;;;;9.77;5.97;;;20.50;99.90;;;;;;5047183;28;20849;-71
2023/07/11 05:43:19;;;;;;;10.03;5.83;;;20.60;99.90;;;;;;5047410;28;20460;-71
2023/07/11 05:45:46;;;;;;;14.20;6.70;;;20.80;99.90;;;;;;5047646;28;20476;-71
2023/07/11 05:48:14;;;;;;;18.33;6.40;;;20.80;99.90;;;;;;5047797;28;20464;-71
2023/07/11 05:50:40;;;;;;;19.30;6.73;;;20.90;99.90;;;;;;5047793;28;20488;-72
2023/07/11 05:53:07;;;;;;;16.07;7.37;;;21.10;99.90;;;;;;5047602;28;20868;-71
2023/07/11 05:55:34;;;;;;;11.50;6.20;;;21.10;99.90;;;;;;5047515;28;20518;-71
2023/07/11 05:58:00;;;;;;;14.80;6.80;;;21.30;99.90;;;;;;5046133;28;20468;-71
2023/07/11 06:00:27;;;;;;;13.40;6.50;;;21.40;99.90;;;;;;5043556;28;20506;-71
2023/07/11 06:02:53;;;;;;;17.00;6.60;;;21.70;99.90;;;;;;5047197;28;20457;-71
2023/07/11 06:05:22;;;;;;;20.40;6.47;;;21.90;99.90;;;;;;5047222;28;20476;-72
2023/07/11 06:07:48;;;;;;;10.53;6.13;;;22.00;99.90;;;;;;5047382;28;20952;-72
2023/07/11 06:10:15;;;;;;;8.57;6.27;;;22.10;99.90;;;;;;5046806;28;20488;-71
2023/07/11 06:12:42;;;;;;;9.83;6.27;;;22.20;99.90;;;;;;5047325;28;20483;-71
2023/07/11 06:15:09;;;;;;;8.83;6.23;;;22.30;99.90;;;;;;5047199;28;20519;-71
2023/07/11 06:17:36;;;;;;;8.73;5.67;;;22.40;99.90;;;;;;5047034;28;20503;-71
2023/07/11 06:20:03;;;;;;;10.13;6.40;;;22.40;99.90;;;;;;5047284;28;20929;-71
2023/07/11 06:22:31;;;;;;;12.43;7.20;;;22.50;99.90;;;;;;5047448;28;20448;-71
2023/07/11 06:24:59;;;;;;;10.60;5.80;;;22.60;99.90;;;;;;5046963;28;20956;-71
2023/07/11 06:27:26;;;;;;;8.20;6.47;;;22.70;99.90;;;;;;5046365;28;20507;-71
2023/07/11 06:29:52;;;;;;;11.30;6.27;;;22.70;99.90;;;;;;5046422;28;20934;-72
2023/07/11 06:32:19;;;;;;;11.23;5.77;;;22.70;99.90;;;;;;5051385;28;20449;-72
2023/07/11 06:34:46;;;;;;;11.80;6.40;;;22.70;99.90;;;;;;5046647;28;20495;-71
2023/07/11 06:37:12;;;;;;;7.90;6.20;;;22.80;99.90;;;;;;5046370;28;20499;-71
2023/07/11 06:39:41;;;;;;;5.83;5.23;;;22.90;99.90;;;;;;5046599;28;20864;-71
2023/07/11 06:42:08;;;;;;;9.07;6.10;;;22.90;99.90;;;;;;5033899;28;20453;-71
2023/07/11 06:44:35;;;;;;;8.47;5.63;;;22.90;99.90;;;;;;5032620;28;20543;-72
2023/07/11 06:47:02;;;;;;;6.70;5.23;;;22.90;99.90;;;;;;5032687;28;20445;-72
2023/07/11 06:49:28;;;;;;;12.80;6.63;;;22.90;99.90;;;;;;5032606;28;20480;-72
2023/07/11 06:51:55;;;;;;;6.97;6.20;;;22.70;99.90;;;;;;5032971;28;20511;-72
2023/07/11 06:54:21;;;;;;;9.03;6.20;;;22.80;99.90;;;;;;5033083;28;20930;-72
2023/07/11 06:56:49;;;;;;;15.57;6.00;;;22.90;99.90;;;;;;5031964;28;20535;-72
2023/07/11 06:59:20;;;;;;;9.10;5.93;;;22.80;99.90;;;;;;5032667;28;20527;-72
2023/07/11 07:01:47;;;;;;;13.57;6.77;;;23.00;99.90;;;;;;5032844;28;20511;-72
2023/07/11 07:04:14;;;;;;;10.53;6.30;;;23.10;99.90;;;;;;5032465;28;21069;-73
2023/07/11 07:06:41;;;;;;;10.63;5.97;;;23.20;99.90;;;;;;5032655;28;20472;-72
2023/07/11 07:09:08;;;;;;;8.80;7.13;;;23.40;99.90;;;;;;5032599;28;20448;-72
2023/07/11 07:11:35;;;;;;;10.53;6.50;;;23.50;99.90;;;;;;5032208;28;20449;-75
2023/07/11 07:14:07;;;;;;;9.93;6.77;;;23.50;99.90;;;;;;5032909;28;20499;-74
2023/07/11 07:16:34;;;;;;;8.30;6.27;;;23.80;99.90;;;;;;5032810;28;20458;-74
2023/07/11 07:19:01;;;;;;;10.07;6.80;;;23.80;99.90;;;;;;5033021;28;20507;-74
2023/07/11 07:21:28;;;;;;;15.10;6.80;;;23.80;99.90;;;;;;5033111;28;21028;-74
2023/07/11 07:23:55;;;;;;;17.90;6.43;;;24.00;99.90;;;;;;5032769;28;20481;-74
2023/07/11 07:26:22;;;;;;;12.53;6.93;;;24.20;99.90;;;;;;5032369;28;20457;-73
2023/07/11 07:28:48;;;;;;;9.70;7.10;;;24.50;99.90;;;;;;5032675;28;20958;-74
2023/07/11 07:31:16;;;;;;;11.77;6.37;;;24.50;99.90;;;;;;5035122;28;20492;-73
2023/07/11 07:33:43;;;;;;;11.87;7.33;;;24.50;99.90;;;;;;5032783;28;20454;-74
2023/07/11 07:36:12;;;;;;;7.50;6.60;;;24.70;99.90;;;;;;5033018;28;20938;-74
2023/07/11 07:38:39;;;;;;;11.10;6.40;;;24.80;99.90;;;;;;5032643;28;20499;-74
2023/07/11 07:41:08;;;;;;;10.10;6.27;;;25.00;99.90;;;;;;5032591;28;20449;-74
2023/07/11 07:43:39;;;;;;;7.20;5.70;;;25.30;99.90;;;;;;5031651;28;20450;-74
2023/07/11 07:46:06;;;;;;;13.93;6.90;;;25.60;99.90;;;;;;5031590;28;21096;-74
2023/07/11 07:48:34;;;;;;;6.30;5.70;;;26.00;99.90;;;;;;5031898;28;21012;-74
2023/07/11 07:51:03;;;;;;;8.70;6.90;;;26.20;99.90;;;;;;5032491;28;20507;-74
2023/07/11 07:53:30;;;;;;;8.60;6.30;;;26.40;99.90;;;;;;5030882;28;20826;-74
2023/07/11 07:56:02;;;;;;;15.03;6.60;;;26.60;99.90;;;;;;5032293;28;20889;-75
2023/07/11 07:58:29;;;;;;;13.33;6.67;;;26.70;99.90;;;;;;5031619;28;20449;-75
2023/07/11 08:00:56;;;;;;;9.37;6.53;;;26.60;99.90;;;;;;5030234;28;20453;-75
2023/07/11 08:03:23;;;;;;;15.23;6.13;;;26.60;99.90;;;;;;5032452;28;20527;-74
2023/07/11 08:05:54;;;;;;;12.70;6.60;;;26.60;99.90;;;;;;5032366;28;20864;-75
2023/07/11 08:08:21;;;;;;;8.30;5.83;;;26.50;99.90;;;;;;5031868;28;21005;-74
2023/07/11 08:10:48;;;;;;;9.03;6.83;;;26.50;99.90;;;;;;5031876;28;20915;-75
2023/07/11 08:13:15;;;;;;;8.63;5.80;;;26.80;99.90;;;;;;5031725;28;20457;-75
2023/07/11 08:15:42;;;;;;;8.97;6.33;;;27.00;99.90;;;;;;5031364;28;20547;-74
2023/07/11 08:18:10;;;;;;;8.93;5.83;;;27.10;99.90;;;;;;5031916;28;20504;-72
2023/07/11 08:20:36;;;;;;;8.90;6.37;;;27.20;99.90;;;;;;5032209;28;20454;-74
2023/07/11 08:23:04;;;;;;;11.53;5.93;;;27.50;99.90;;;;;;5031773;28;20457;-74
2023/07/11 08:25:31;;;;;;;7.73;6.03;;;27.50;99.90;;;;;;5031728;28;20465;-74
2023/07/11 08:27:58;;;;;;;11.53;6.57;;;27.60;99.90;;;;;;5031816;28;20507;-75
2023/07/11 08:30:24;;;;;;;6.57;5.40;;;27.80;99.90;;;;;;5031589;28;21004;-75
2023/07/11 08:32:51;;;;;;;9.87;5.30;;;27.70;99.90;;;;;;5037791;28;20453;-74
2023/07/11 08:35:18;;;;;;;9.10;5.70;;;27.90;99.90;;;;;;5031040;28;20477;-74
2023/07/11 08:37:44;;;;;;;7.27;5.97;;;27.90;99.90;;;;;;5031216;28;20465;-75
2023/07/11 08:40:20;;;;;;;7.50;5.43;;;28.00;99.90;;;;;;5031636;28;20513;-74
2023/07/11 08:42:47;;;;;;;9.33;6.43;;;28.10;99.90;;;;;;5031571;28;20807;-74
2023/07/11 08:45:20;;;;;;;9.87;6.07;;;28.40;99.90;;;;;;5031197;28;20469;-73
2023/07/11 08:47:55;;;;;;;9.20;5.60;;;28.50;99.90;;;;;;5031199;28;20457;-74
2023/07/11 08:50:26;;;;;;;6.17;5.13;;;28.60;99.90;;;;;;5031373;28;20523;-73
2023/07/11 08:53:03;;;;;;;7.60;5.30;;;29.00;99.90;;;;;;5028169;28;20454;-73
2023/07/11 08:55:34;;;;;;;9.27;5.53;;;29.20;99.90;;;;;;5030877;28;20473;-73
2023/07/11 08:58:07;;;;;;;10.53;5.40;;;29.30;99.90;;;;;;5030539;28;20856;-73
2023/07/11 09:00:34;;;;;;;8.77;5.40;;;29.30;99.90;;;;;;5030663;28;20445;-74
2023/07/11 09:03:10;;;;;;;7.80;5.60;;;29.40;99.90;;;;;;5030999;28;20508;-73
2023/07/11 09:05:43;;;;;;;9.80;5.63;;;29.40;99.90;;;;;;5030769;28;20527;-72
2023/07/11 09:08:14;;;;;;;6.83;5.47;;;29.40;99.90;;;;;;5031000;28;21007;-72
2023/07/11 09:10:50;;;;;;;7.80;5.10;;;29.60;99.90;;;;;;5030861;28;20496;-72
2023/07/11 09:13:43;;;;;;;5.80;5.20;;;29.70;99.90;;;;;;5031389;28;20507;-72
2023/07/11 09:16:18;;;;;;;5.83;4.87;;;29.80;99.90;;;;;;5031339;28;20508;-72
2023/07/11 09:18:51;;;;;;;6.63;4.90;;;29.60;99.90;;;;;;5030502;28;20452;-72
2023/07/11 09:21:28;;;;;;;5.77;4.80;;;29.60;99.90;;;;;;5030695;28;20511;-73
2023/07/11 09:24:04;;;;;;;7.17;5.27;;;29.70;99.90;;;;;;5030445;28;20472;-73
2023/07/11 09:26:36;;;;;;;7.10;5.00;;;29.80;99.90;;;;;;5028215;28;20538;-74
2023/07/11 09:29:06;;;;;;;4.73;4.20;;;29.90;99.90;;;;;;5030404;28;20972;-72
2023/07/11 09:31:39;;;;;;;7.53;5.20;;;30.00;99.90;;;;;;5037255;28;20958;-73
2023/07/11 09:34:16;;;;;;;5.50;5.00;;;30.00;99.90;;;;;;5030714;28;20899;-72
2023/07/11 09:36:43;;;;;;;7.00;5.00;;;30.00;99.90;;;;;;5030543;28;20838;-73
2023/07/11 09:39:17;;;;;;;5.70;5.10;;;29.90;99.90;;;;;;5030778;28;20461;-73
2023/07/11 09:41:51;;;;;;;7.70;4.60;;;29.90;99.90;;;;;;5031037;28;20442;-73
2023/07/11 09:44:18;;;;;;;6.30;4.70;;;30.00;99.90;;;;;;5029730;28;20499;-73
2023/07/11 09:46:45;;;;;;;12.90;4.97;;;30.30;99.90;;;;;;5029972;28;20461;-73
2023/07/11 09:49:20;;;;;;;5.50;4.00;;;30.30;99.90;;;;;;5029730;28;20449;-74
2023/07/11 09:51:51;;;;;;;5.83;4.83;;;30.40;99.90;;;;;;5029960;28;20829;-74
2023/07/11 09:54:19;;;;;;;5.20;4.57;;;30.30;99.90;;;;;;5029974;28;20473;-74
2023/07/11 09:56:50;;;;;;;6.30;4.10;;;30.30;99.90;;;;;;5030091;28;20445;-74
2023/07/11 09:59:17;;;;;;;7.07;5.00;;;30.40;99.90;;;;;;5029869;28;20460;-74
2023/07/11 10:01:46;;;;;;;8.20;4.27;;;30.60;99.90;;;;;;5029975;28;20449;-73
2023/07/11 10:04:16;;;;;;;4.63;4.10;;;30.90;99.90;;;;;;5029240;28;21035;-72
2023/07/11 10:06:52;;;;;;;8.70;4.37;;;30.90;99.90;;;;;;5029786;28;20511;-73
2023/07/11 10:09:23;;;;;;;5.10;4.00;;;31.10;99.90;;;;;;5029518;28;20732;-74
2023/07/11 10:12:00;;;;;;;9.53;5.80;;;30.90;99.90;;;;;;5029890;28;21082;-73
2023/07/11 10:14:32;;;;;;;12.77;4.80;;;30.90;99.90;;;;;;5029721;28;20468;-73
2023/07/11 10:16:59;;;;;;;5.60;4.73;;;31.10;99.90;;;;;;5031669;28;20460;-73
2023/07/11 10:19:27;;;;;;;9.27;4.00;;;31.30;99.90;;;;;;5032260;28;20488;-73
2023/07/11 10:21:59;;;;;;;7.67;4.50;;;31.40;99.90;;;;;;5033823;28;20536;-73
2023/07/11 10:24:33;;;;;;;10.33;4.87;;;31.30;99.90;;;;;;5034078;28;20550;-74
2023/07/11 10:27:06;;;;;;;7.13;5.23;;;31.30;99.90;;;;;;5025952;28;20503;-74
2023/07/11 10:29:41;;;;;;;6.63;5.23;;;31.40;99.90;;;;;;5033044;28;20464;-73
2023/07/11 10:32:13;;;;;;;7.80;4.73;;;31.70;99.90;;;;;;5036099;28;20496;-73
2023/07/11 10:34:46;;;;;;;7.20;4.93;;;31.60;99.90;;;;;;5034080;28;20534;-73
2023/07/11 10:37:23;;;;;;;13.30;5.50;;;31.60;99.90;;;;;;5034006;28;20523;-74
2023/07/11 10:39:53;;;;;;;7.30;4.57;;;31.60;99.90;;;;;;5033755;28;20449;-72
2023/07/11 10:42:29;;;;;;;10.47;5.07;;;31.60;99.90;;;;;;5033814;28;20449;-73
2023/07/11 10:45:12;;;;;;;7.67;4.93;;;31.70;99.90;;;;;;5033918;28;20542;-73
2023/07/11 10:47:45;;;;;;;6.50;4.60;;;31.80;99.90;;;;;;5033189;28;20504;-73
2023/07/11 10:50:26;;;;;;;9.80;5.10;;;31.90;99.90;;;;;;5028003;28;20445;-73
2023/07/11 10:52:58;;;;;;;4.80;4.40;;;32.20;99.90;;;;;;5033252;28;20445;-74
2023/07/11 10:55:32;;;;;;;8.13;4.40;;;32.20;99.90;;;;;;5033626;28;20883;-73
2023/07/11 10:58:00;;;;;;;5.90;4.80;;;32.10;99.90;;;;;;5032885;28;20469;-73
2023/07/11 11:00:36;;;;;;;5.27;4.80;;;32.30;99.90;;;;;;5033449;28;20460;-75
2023/07/11 11:03:14;;;;;;;7.70;4.47;;;32.30;99.90;;;;;;5033590;28;20441;-74
2023/07/11 11:05:47;;;;;;;5.70;5.10;;;32.10;99.90;;;;;;5031758;28;20842;-74
2023/07/11 11:08:20;;;;;;;16.83;5.03;;;32.10;99.90;;;;;;5033514;28;20779;-74
2023/07/11 11:10:55;;;;;;;7.70;5.33;;;31.90;99.90;;;;;;5032844;28;20477;-73
2023/07/11 11:13:31;;;;;;;7.03;5.00;;;32.00;99.90;;;;;;5032998;28;20538;-74
2023/07/11 11:16:04;;;;;;;12.57;5.00;;;32.10;99.90;;;;;;5032884;28;20465;-74
2023/07/11 11:18:43;;;;;;;6.70;4.83;;;32.10;99.90;;;;;;5033022;28;20762;-74
2023/07/11 11:21:18;;;;;;;7.13;5.37;;;32.20;99.90;;;;;;5026714;28;20449;-74
2023/07/11 11:23:58;;;;;;;7.40;4.90;;;32.10;99.90;;;;;;5032975;28;20471;-74
2023/07/11 11:26:34;;;;;;;5.90;5.30;;;32.10;99.90;;;;;;5032587;28;20515;-74
2023/07/11 11:29:10;;;;;;;9.07;5.40;;;32.10;99.90;;;;;;5032167;28;20469;-74
2023/07/11 11:31:42;;;;;;;10.50;5.40;;;32.10;99.90;;;;;;5031956;28;20540;-74
2023/07/11 11:34:21;;;;;;;8.07;5.00;;;32.30;99.90;;;;;;5031795;28;20507;-74
2023/07/11 11:36:57;;;;;;;8.03;5.17;;;32.50;99.90;;;;;;5032349;28;20449;-74
2023/07/11 11:39:33;;;;;;;8.10;5.03;;;32.40;99.90;;;;;;5031818;28;20448;-74
2023/07/11 11:42:05;;;;;;;15.13;5.57;;;32.50;99.90;;;;;;5030320;28;20453;-74
2023/07/11 11:44:40;;;;;;;12.80;5.43;;;32.50;99.90;;;;;;5031290;28;20465;-74
2023/07/11 11:47:08;;;;;;;8.70;5.40;;;32.70;99.90;;;;;;5031926;28;20457;-74
2023/07/11 11:49:37;;;;;;;7.87;5.00;;;32.80;99.90;;;;;;5031942;28;20457;-74
2023/07/11 11:52:06;;;;;;;8.53;4.80;;;32.90;99.90;;;;;;5031957;28;20481;-73
2023/07/11 11:54:38;;;;;;;9.97;5.67;;;33.20;99.90;;;;;;5031977;28;20474;-74
2023/07/11 11:57:05;;;;;;;6.00;4.73;;;32.90;99.90;;;;;;5032807;28;20441;-73
2023/07/11 11:59:33;;;;;;;5.90;5.30;;;33.00;99.90;;;;;;5032488;28;20445;-74
2023/07/11 12:02:08;;;;;;;11.33;5.97;;;33.00;99.90;;;;;;5032270;28;20941;-74
2023/07/11 12:05:16;;;;;;;6.43;5.47;;;33.00;99.90;;;;;;5032026;28;20523;-73
2023/07/11 12:07:43;;;;;;;9.30;5.73;;;33.00;99.90;;;;;;5032218;28;20445;-74
2023/07/11 12:10:19;;;;;;;5.83;4.97;;;33.20;99.90;;;;;;5031864;28;20500;-73
2023/07/11 12:13:14;;;;;;;5.83;5.23;;;33.20;99.80;;;;;;5031761;28;20546;-74
2023/07/11 12:15:48;;;;;;;9.33;5.73;;;33.20;99.90;;;;;;5031409;28;20550;-74
2023/07/11 12:18:25;;;;;;;7.13;5.60;;;33.30;99.90;;;;;;5032335;28;20988;-76
2023/07/11 12:21:21;;;;;;;7.67;5.20;;;33.40;99.90;;;;;;5031955;28;20499;-74
2023/07/11 12:23:49;;;;;;;6.57;5.00;;;33.50;99.70;;;;;;5018320;28;20551;-74
2023/07/11 12:26:17;;;;;;;8.93;5.57;;;33.60;99.50;;;;;;5031668;28;20448;-74
2023/07/11 12:28:46;;;;;;;6.37;5.43;;;33.70;99.90;;;;;;5031548;28;20457;-74
2023/07/11 12:31:19;;;;;;;13.27;5.73;;;33.80;99.50;;;;;;5031673;28;20484;-74
2023/07/11 12:33:59;;;;;;;10.20;6.07;;;33.80;99.20;;;;;;5031520;28;20484;-74
2023/07/11 12:36:55;;;;;;;12.57;5.67;;;33.70;99.60;;;;;;5031711;28;20615;-74
2023/07/11 12:39:43;;;;;;;8.53;5.43;;;33.70;99.50;;;;;;5030812;28;20448;-74
2023/07/11 12:42:22;;;;;;;9.20;6.43;;;33.60;99.90;;;;;;5031602;28;20867;-74
2023/07/11 12:44:49;;;;;;;6.30;5.50;;;33.50;99.90;;;;;;5031221;28;20968;-74
2023/07/11 12:47:19;;;;;;;9.67;5.97;;;33.40;99.90;;;;;;5030897;28;20914;-73
2023/07/11 12:49:48;;;;;;;6.60;5.77;;;33.30;99.90;;;;;;5031266;28;21025;-74
2023/07/11 12:52:17;;;;;;;8.20;5.97;;;33.50;99.90;;;;;;5031356;28;20551;-74